Time;durP1;ratioP1;P1;durP2;ratioP2;P2;SDS_P1;SDS_P2;PMS_P1;PMS_P2;Temp;Humidity;BMP_temperature;BMP_pressure;BME280_temperature;BME280_humidity;BME280_pressure;Samples;Min_cycle;Max_cycle;Signal;HPM_P1;HPM_P2
2022/08/30 00:02:27;;;;;;;;;11.20;10.20;;;;;27.08;55.11;99391.56;5110263;27;8854;-77
2022/08/30 00:05:00;;;;;;;;;11.40;9.80;;;;;27.06;54.48;99392.66;5092946;27;9581;-76
2022/08/30 00:07:29;;;;;;;;;11.20;10.60;;;;;27.19;55.28;99393.47;5129148;27;8860;-75
2022/08/30 00:09:59;;;;;;;;;16.00;13.80;;;;;27.20;55.53;99388.03;5111043;27;8867;-78
2022/08/30 00:12:28;;;;;;;;;13.40;11.20;;;;;27.28;55.43;99394.66;5092714;27;8868;-75
2022/08/30 00:14:57;;;;;;;;;14.20;11.00;;;;;27.28;55.14;99389.28;5092881;27;8857;-74
2022/08/30 00:17:25;;;;;;;;;13.40;12.60;;;;;27.32;55.50;99386.31;5129352;27;8983;-76
2022/08/30 00:19:55;;;;;;;;;12.80;12.20;;;;;27.26;55.19;99396.59;5129148;27;8837;-76
2022/08/30 00:22:23;;;;;;;;;9.60;9.60;;;;;27.23;54.13;99393.13;5128458;27;8837;-77
2022/08/30 00:24:52;;;;;;;;;10.40;10.40;;;;;27.22;54.83;99390.56;5129515;27;8857;-77
2022/08/30 00:27:21;;;;;;;;;14.00;12.60;;;;;27.29;55.39;99396.38;5111058;27;8989;-76
2022/08/30 00:29:50;;;;;;;;;10.60;10.20;;;;;27.18;53.39;99389.97;5060481;27;8833;-77
2022/08/30 00:32:20;;;;;;;;;9.00;8.00;;;;;27.06;53.42;99387.28;5110571;27;8956;-78
2022/08/30 00:34:48;;;;;;;;;9.20;8.20;;;;;27.20;54.59;99404.09;5129248;27;8853;-77
2022/08/30 00:37:17;;;;;;;;;11.40;10.40;;;;;27.22;54.81;99402.16;5128982;27;8852;-75
2022/08/30 00:39:46;;;;;;;;;14.20;13.40;;;;;27.15;52.81;99408.91;5128997;27;8964;-77
2022/08/30 00:42:16;;;;;;;;;12.60;11.80;;;;;27.06;53.56;99401.53;5129515;27;8942;-76
2022/08/30 00:44:47;;;;;;;;;9.40;9.40;;;;;27.03;52.90;99404.41;5131576;27;8861;-77
2022/08/30 00:47:16;;;;;;;;;9.60;9.20;;;;;26.35;54.35;99409.09;5134672;27;8988;-77
2022/08/30 00:49:47;;;;;;;;;11.60;11.60;;;;;26.71;53.92;99404.88;5128626;27;9646;-75
2022/08/30 00:52:18;;;;;;;;;11.20;9.60;;;;;26.93;54.35;99401.53;5128514;27;8821;-76
2022/08/30 00:54:48;;;;;;;;;12.20;10.80;;;;;26.51;54.74;99403.53;5128042;27;8850;-76
2022/08/30 00:57:17;;;;;;;;;13.00;13.00;;;;;26.76;53.93;99404.56;5128632;27;8887;-75
2022/08/30 00:59:49;;;;;;;;;11.40;11.00;;;;;26.62;53.86;99406.38;5076712;27;8925;-75
2022/08/30 01:02:21;;;;;;;;;13.80;12.00;;;;;26.89;54.68;99399.19;5129091;27;8871;-76
2022/08/30 01:04:51;;;;;;;;;10.20;9.20;;;;;27.04;53.99;99395.44;5129014;27;8998;-77
2022/08/30 01:07:19;;;;;;;;;11.40;10.40;;;;;25.92;54.41;99420.00;5110281;27;8952;-78
2022/08/30 01:09:48;;;;;;;;;9.80;9.80;;;;;25.56;55.77;99407.19;5130834;27;8880;-76
2022/08/30 01:12:17;;;;;;;;;10.60;9.40;;;;;25.13;57.08;99417.94;5096182;27;8841;-77
2022/08/30 01:14:47;;;;;;;;;10.80;10.60;;;;;25.09;57.23;99409.25;5133007;27;9653;-77
2022/08/30 01:17:17;;;;;;;;;15.00;13.80;;;;;25.41;56.92;99409.91;5132380;27;9013;-76
2022/08/30 01:19:53;;;;;;;;;9.60;9.60;;;;;25.64;56.33;99407.56;5133215;27;8996;-79
2022/08/30 01:22:32;;;;;;;;;11.40;10.60;;;;;26.04;56.72;99413.81;5137905;27;8870;-77
2022/08/30 01:25:03;;;;;;;;;10.80;10.60;;;;;26.07;55.48;99423.47;5115957;27;8857;-77
2022/08/30 01:27:38;;;;;;;;;10.60;9.40;;;;;26.16;56.30;99432.69;5115701;27;8830;-76
2022/08/30 01:30:08;;;;;;;;;13.60;12.40;;;;;26.41;56.29;99430.06;5144212;27;8855;-78
2022/08/30 01:32:40;;;;;;;;;10.40;10.40;;;;;26.36;55.52;99424.16;5149948;27;8841;-76
2022/08/30 01:35:10;;;;;;;;;12.20;11.60;;;;;26.43;56.38;99422.78;5153777;27;8837;-76
2022/08/30 01:37:39;;;;;;;;;11.20;11.20;;;;;26.59;56.73;99427.97;5155519;27;8937;-75
2022/08/30 01:40:10;;;;;;;;;13.60;12.80;;;;;26.64;55.88;99420.50;5145741;27;8894;-77
2022/08/30 01:42:39;;;;;;;;;12.40;11.40;;;;;26.80;55.89;99424.78;5134324;27;8853;-77
2022/08/30 01:45:09;;;;;;;;;13.60;12.40;;;;;26.84;55.99;99418.25;5132505;27;9639;-76
2022/08/30 01:47:39;;;;;;;;;17.80;14.20;;;;;25.99;57.76;99428.44;5132962;27;8858;-76
2022/08/30 01:50:09;;;;;;;;;18.20;14.80;;;;;26.30;57.49;99429.09;5132564;27;8852;-77
2022/08/30 01:52:38;;;;;;;;;14.80;13.40;;;;;26.44;57.38;99439.69;5143713;27;8859;-75
2022/08/30 01:55:09;;;;;;;;;16.80;15.00;;;;;26.42;56.99;99428.25;5151408;27;8878;-77
2022/08/30 01:57:38;;;;;;;;;12.80;12.80;;;;;26.29;56.66;99430.88;5152929;27;8869;-78
2022/08/30 02:00:09;;;;;;;;;16.20;15.60;;;;;25.95;57.40;99427.78;5153072;27;8889;-76
2022/08/30 02:02:41;;;;;;;;;16.20;14.20;;;;;26.00;57.96;99440.88;5132811;27;9375;-77
2022/08/30 02:05:10;;;;;;;;;14.00;13.20;;;;;26.13;57.05;99425.72;5152437;27;8973;-78
2022/08/30 02:07:38;;;;;;;;;11.60;8.00;;;;;26.20;56.34;99421.69;5152407;27;8867;-77
2022/08/30 02:10:10;;;;;;;;;14.00;12.40;;;;;26.22;56.42;99422.44;5111278;27;8849;-78
2022/08/30 02:12:38;;;;;;;;;13.40;13.40;;;;;26.33;57.03;99427.03;5134649;27;9617;-79
2022/08/30 02:15:08;;;;;;;;;13.20;12.80;;;;;26.45;56.47;99426.22;5134595;27;8874;-77
2022/08/30 02:17:37;;;;;;;;;11.40;11.40;;;;;26.57;56.43;99421.00;5151783;27;8855;-77
2022/08/30 02:20:07;;;;;;;;;14.80;13.40;;;;;26.71;56.04;99426.28;5131554;27;8867;-76
2022/08/30 02:22:35;;;;;;;;;11.60;11.60;;;;;26.69;55.73;99427.34;5133824;27;8989;-76
2022/08/30 02:25:06;;;;;;;;;17.00;13.60;;;;;26.63;55.31;99428.63;5152873;27;8839;-77
2022/08/30 02:27:45;;;;;;;;;13.60;12.00;;;;;26.69;55.64;99428.19;5085910;27;8950;-77
2022/08/30 02:30:14;;;;;;;;;14.00;14.00;;;;;26.73;55.77;99432.38;5131558;27;8858;-77
2022/08/30 02:32:42;;;;;;;;;16.60;16.60;;;;;26.80;55.67;99430.13;5132084;27;8853;-77
2022/08/30 02:35:11;;;;;;;;;16.20;16.20;;;;;26.85;55.82;99430.66;5085504;27;9992;-77
2022/08/30 02:37:39;;;;;;;;;15.80;14.00;;;;;26.67;55.54;99431.94;5152271;27;8838;-76
2022/08/30 02:40:09;;;;;;;;;15.40;14.20;;;;;26.80;55.84;99432.81;5133129;27;8954;-78
2022/08/30 02:42:38;;;;;;;;;15.60;13.40;;;;;26.81;55.13;99432.69;5081833;27;8921;-75
2022/08/30 02:45:09;;;;;;;;;16.40;13.60;;;;;27.00;55.62;99431.41;5148734;27;8878;-76
2022/08/30 02:47:38;;;;;;;;;19.20;16.40;;;;;27.04;55.29;99443.63;5130639;27;8868;-76
2022/08/30 02:50:14;;;;;;;;;16.00;14.00;;;;;27.06;55.12;99448.84;5132781;27;8845;-77
2022/08/30 02:52:42;;;;;;;;;15.60;14.60;;;;;27.07;55.39;99443.41;5133392;27;8865;-76
2022/08/30 02:55:16;;;;;;;;;16.80;15.20;;;;;27.14;55.09;99444.66;5117117;27;8877;-77
2022/08/30 02:57:45;;;;;;;;;14.00;13.40;;;;;27.18;54.55;99450.66;5065699;27;8870;-79
2022/08/30 03:00:18;;;;;;;;;14.40;14.40;;;;;27.32;54.43;99458.59;5133667;27;8855;-76
2022/08/30 03:02:48;;;;;;;;;15.20;14.60;;;;;27.30;54.01;99448.97;5152073;27;8857;-77
2022/08/30 03:05:17;;;;;;;;;14.40;13.80;;;;;27.36;54.38;99451.22;5152128;27;8819;-77
2022/08/30 03:07:46;;;;;;;;;15.20;14.80;;;;;27.36;54.42;99454.72;5135367;27;8845;-75
2022/08/30 03:10:15;;;;;;;;;30.00;27.40;;;;;27.41;54.33;99449.03;5132963;27;8834;-76
2022/08/30 03:12:44;;;;;;;;;59.00;48.25;;;;;27.36;54.15;99445.84;5132375;27;8899;-76
2022/08/30 03:15:13;;;;;;;;;16.60;15.80;;;;;27.33;53.44;99454.09;5097048;27;8853;-78
2022/08/30 03:17:43;;;;;;;;;18.00;15.80;;;;;27.40;53.56;99455.38;5131762;27;9660;-76
2022/08/30 03:20:12;;;;;;;;;14.40;12.20;;;;;27.12;53.77;99451.94;5088944;27;8828;-75
2022/08/30 03:22:41;;;;;;;;;13.00;13.00;;;;;27.27;53.79;99457.22;5132644;27;8836;-77
2022/08/30 03:25:10;;;;;;;;;11.80;11.40;;;;;27.36;53.80;99459.25;5150948;27;8839;-77
2022/08/30 03:27:38;;;;;;;;;13.80;13.00;;;;;27.10;53.62;99455.72;5097180;27;8859;-77
2022/08/30 03:30:08;;;;;;;;;16.20;14.40;;;;;27.09;52.86;99457.53;5151123;27;8854;-76
2022/08/30 03:32:37;;;;;;;;;14.40;12.60;;;;;27.16;53.28;99450.75;5150244;27;8946;-77
2022/08/30 03:35:08;;;;;;;;;15.60;14.00;;;;;27.22;53.10;99453.03;5097813;27;8970;-75
2022/08/30 03:37:36;;;;;;;;;15.20;13.60;;;;;27.32;53.08;99457.75;5132344;27;8957;-77
2022/08/30 03:40:08;;;;;;;;;15.00;14.00;;;;;27.37;53.26;99455.59;5149776;27;9746;-77
2022/08/30 03:42:37;;;;;;;;;12.60;12.60;;;;;27.40;53.11;99455.38;5150844;27;8859;-76
2022/08/30 03:45:12;;;;;;;;;14.60;14.60;;;;;27.36;52.48;99457.41;5150900;27;8858;-75
2022/08/30 03:47:41;;;;;;;;;10.40;9.80;;;;;27.30;52.23;99460.53;5133593;27;8841;-75
2022/08/30 03:50:12;;;;;;;;;13.20;13.20;;;;;27.41;53.03;99459.75;5129766;27;8853;-76
2022/08/30 03:52:41;;;;;;;;;32.00;28.40;;;;;27.47;53.72;99462.00;5130054;27;8834;-75
2022/08/30 03:55:09;;;;;;;;;18.20;16.20;;;;;27.52;52.92;99457.16;5093627;27;8837;-75
2022/08/30 03:57:41;;;;;;;;;18.80;13.60;;;;;27.56;52.75;99461.34;5129873;27;8857;-75
2022/08/30 04:00:13;;;;;;;;;15.40;15.40;;;;;27.58;53.03;99470.13;5129345;27;8834;-75
2022/08/30 04:02:41;;;;;;;;;16.00;15.20;;;;;27.63;52.83;99460.88;5129235;27;8842;-77
2022/08/30 04:05:13;;;;;;;;;13.20;12.40;;;;;27.65;53.12;99467.00;5136554;27;9580;-76
2022/08/30 04:07:46;;;;;;;;;17.40;17.00;;;;;27.30;52.31;99470.41;5131795;27;8859;-76
2022/08/30 04:10:14;;;;;;;;;23.80;20.80;;;;;27.37;52.58;99467.16;5149694;27;8961;-76
2022/08/30 04:12:43;;;;;;;;;18.00;17.40;;;;;27.40;52.27;99476.81;5126544;27;9672;-75
2022/08/30 04:15:18;;;;;;;;;14.20;14.20;;;;;27.40;52.75;99468.75;5113322;27;8972;-78
2022/08/30 04:17:48;;;;;;;;;17.40;15.40;;;;;27.49;52.68;99470.78;5110724;27;8830;-77
2022/08/30 04:20:18;;;;;;;;;45.25;38.50;;;;;27.56;52.39;99477.41;5113377;27;8899;-77
2022/08/30 04:22:47;;;;;;;;;81.75;75.25;;;;;27.61;52.59;99475.25;5128807;27;8830;-78
2022/08/30 04:25:16;;;;;;;;;19.60;17.20;;;;;27.65;52.46;99473.19;5128745;27;9603;-76
2022/08/30 04:27:45;;;;;;;;;17.20;16.60;;;;;27.69;52.68;99490.75;5129079;27;8984;-75
2022/08/30 04:30:16;;;;;;;;;15.00;14.60;;;;;27.73;52.10;99484.22;5130489;27;8837;-77
2022/08/30 04:32:45;;;;;;;;;16.00;15.40;;;;;27.79;51.98;99491.81;5129151;27;8846;-76
2022/08/30 04:35:14;;;;;;;;;18.20;16.80;;;;;27.73;52.16;99488.72;5136341;27;8843;-77
2022/08/30 04:37:44;;;;;;;;;17.40;17.20;;;;;27.81;52.53;99495.25;5148990;27;10006;-77
2022/08/30 04:40:13;;;;;;;;;15.00;14.00;;;;;27.81;52.19;99489.03;5094303;27;8844;-77
2022/08/30 04:42:43;;;;;;;;;17.00;16.20;;;;;27.79;52.14;99494.50;5140419;27;8952;-75
2022/08/30 04:45:15;;;;;;;;;14.00;13.40;;;;;27.88;53.09;99495.63;5132196;27;8819;-77
2022/08/30 04:47:44;;;;;;;;;17.20;17.20;;;;;27.93;52.32;99490.81;5110418;27;8826;-75
2022/08/30 04:50:17;;;;;;;;;20.00;18.00;;;;;27.98;52.01;99498.56;5130216;27;8941;-76
2022/08/30 04:52:47;;;;;;;;;20.00;17.00;;;;;28.04;51.72;99499.91;5149143;27;8855;-76
2022/08/30 04:55:16;;;;;;;;;15.00;14.40;;;;;27.99;51.37;99511.81;5132272;27;8870;-76
2022/08/30 04:57:48;;;;;;;;;17.80;16.20;;;;;27.99;51.51;99516.31;5130841;27;9751;-77
2022/08/30 05:00:19;;;;;;;;;22.60;21.40;;;;;28.05;51.57;99509.66;5130234;27;8844;-77
2022/08/30 05:02:49;;;;;;;;;15.60;15.60;;;;;28.06;51.34;99514.06;5109347;27;8857;-75
2022/08/30 05:08:06;;;;;;;;;16.60;16.00;;;;;28.11;51.22;99515.44;5132673;27;8837;-76
2022/08/30 05:10:39;;;;;;;;;17.00;16.00;;;;;28.15;51.34;99521.44;5130128;27;8857;-77
2022/08/30 05:13:08;;;;;;;;;16.60;15.20;;;;;28.24;51.25;99520.72;5111318;27;8848;-78
2022/08/30 05:15:38;;;;;;;;;19.80;18.00;;;;;28.26;51.16;99520.63;5146555;27;8847;-78
2022/08/30 05:18:07;;;;;;;;;18.00;17.40;;;;;28.27;50.24;99523.19;5146858;27;8861;-79
2022/08/30 05:20:41;;;;;;;;;18.00;17.40;;;;;28.31;50.96;99526.50;5149476;27;8849;-76
2022/08/30 05:23:11;;;;;;;;;15.60;14.40;;;;;28.42;51.03;99531.91;5130944;27;8954;-78
2022/08/30 05:25:42;;;;;;;;;16.40;15.40;;;;;28.43;51.09;99536.31;5149246;27;8866;-78
2022/08/30 05:28:11;;;;;;;;;18.80;18.80;;;;;28.44;50.63;99532.66;5146016;27;8837;-77
2022/08/30 05:30:40;;;;;;;;;19.40;18.20;;;;;28.54;50.46;99533.69;5146133;27;8836;-78
2022/08/30 05:33:08;;;;;;;;;15.00;14.60;;;;;28.48;50.77;99534.13;5114505;27;9704;-77
2022/08/30 05:35:39;;;;;;;;;14.60;14.40;;;;;28.60;50.74;99526.16;5143640;27;8851;-79
2022/08/30 05:38:08;;;;;;;;;15.00;15.00;;;;;28.64;50.61;99524.94;5070278;27;8830;-76
2022/08/30 05:40:42;;;;;;;;;17.60;17.20;;;;;28.48;50.03;99526.09;5128681;27;8833;-76
2022/08/30 05:43:13;;;;;;;;;14.80;13.20;;;;;28.46;50.28;99522.66;5142651;27;8851;-78
2022/08/30 05:45:41;;;;;;;;;17.40;16.60;;;;;28.63;49.89;99532.16;5143921;27;8822;-77
2022/08/30 05:48:09;;;;;;;;;17.40;17.40;;;;;28.67;50.11;99530.94;5138414;27;8839;-77
2022/08/30 05:50:42;;;;;;;;;17.40;17.40;;;;;28.53;49.69;99520.41;5103565;27;8902;-76
2022/08/30 05:53:11;;;;;;;;;15.60;13.40;;;;;27.70;50.95;99527.31;5068543;27;8891;-77
2022/08/30 05:55:42;;;;;;;;;17.60;17.60;;;;;28.14;50.58;99525.06;5143726;27;8947;-77
2022/08/30 05:58:10;;;;;;;;;19.60;19.00;;;;;28.24;50.76;99534.13;5152370;27;8835;-77
2022/08/30 06:00:39;;;;;;;;;22.20;19.80;;;;;28.33;50.35;99530.75;5132973;27;8986;-76
2022/08/30 06:03:10;;;;;;;;;19.60;19.40;;;;;28.15;50.57;99529.47;5103023;27;8902;-72
2022/08/30 06:05:39;;;;;;;;;21.80;20.60;;;;;28.35;50.93;99527.97;5151044;27;8871;-72
2022/08/30 06:08:08;;;;;;;;;18.60;18.00;;;;;28.40;50.17;99536.53;5131343;27;8847;-70
2022/08/30 06:10:36;;;;;;;;;20.00;17.20;;;;;28.37;49.73;99534.06;5151284;27;8824;-68
2022/08/30 06:13:06;;;;;;;;;18.60;17.60;;;;;28.49;50.40;99548.44;5147757;27;8912;-68
2022/08/30 06:15:35;;;;;;;;;22.00;19.40;;;;;28.31;49.64;99539.91;5114779;27;8867;-68
2022/08/30 06:18:04;;;;;;;;;19.20;17.60;;;;;28.45;50.36;99542.44;5150789;27;8835;-68
2022/08/30 06:20:33;;;;;;;;;23.00;22.20;;;;;28.50;49.44;99542.06;5150783;27;8828;-66
2022/08/30 06:23:02;;;;;;;;;17.00;17.00;;;;;28.51;49.65;99544.66;5150997;27;8875;-68
2022/08/30 06:25:30;;;;;;;;;16.40;14.40;;;;;28.71;50.11;99542.31;5137433;27;9022;-67
2022/08/30 06:28:11;;;;;;;;;17.40;15.80;;;;;28.49;50.35;99545.75;5148347;27;8865;-68
2022/08/30 06:30:41;;;;;;;;;18.80;17.60;;;;;28.46;49.86;99545.97;5150852;27;8870;-66
2022/08/30 06:33:10;;;;;;;;;19.40;16.60;;;;;28.55;49.34;99545.31;5150073;27;8831;-66
2022/08/30 06:35:39;;;;;;;;;18.00;16.40;;;;;28.27;50.58;99551.84;5145137;27;8847;-76
2022/08/30 06:38:27;;;;;;;;;19.60;18.60;;;;;28.41;50.41;99556.16;5133149;27;8859;-75
2022/08/30 06:40:55;;;;;;;;;22.20;20.40;;;;;28.43;49.54;99559.59;5145281;27;8857;-75
2022/08/30 06:43:25;;;;;;;;;18.80;17.20;;;;;28.30;50.18;99563.19;5102436;27;8843;-76
2022/08/30 06:45:55;;;;;;;;;21.60;21.20;;;;;28.44;50.24;99558.63;5111523;27;8879;-66
2022/08/30 06:48:23;;;;;;;;;20.80;20.80;;;;;28.63;49.89;99564.34;5114115;27;8853;-67
2022/08/30 06:50:53;;;;;;;;;22.40;21.40;;;;;28.72;49.45;99569.03;5139969;27;8846;-67
2022/08/30 06:53:23;;;;;;;;;18.80;18.80;;;;;28.59;49.52;99560.19;5132134;27;10173;-65
2022/08/30 06:55:57;;;;;;;;;17.60;16.80;;;;;28.84;49.82;99564.53;5087400;27;8857;-64
2022/08/30 06:58:28;;;;;;;;;16.60;14.00;;;;;28.91;49.83;99559.56;5118157;27;8988;-64
2022/08/30 07:00:57;;;;;;;;;20.00;20.00;;;;;29.01;49.42;99559.72;5138888;27;8950;-65
2022/08/30 07:03:27;;;;;;;;;19.00;18.40;;;;;29.10;49.37;99561.69;5148911;27;8835;-65
2022/08/30 07:05:56;;;;;;;;;22.00;18.20;;;;;29.18;49.12;99561.13;5148940;27;8962;-66
2022/08/30 07:08:26;;;;;;;;;23.00;19.20;;;;;29.29;49.18;99567.38;5148685;27;8845;-63
2022/08/30 07:10:55;;;;;;;;;18.40;16.20;;;;;28.73;49.77;99565.38;5127999;27;8815;-65
2022/08/30 07:13:24;;;;;;;;;24.60;22.00;;;;;28.99;48.91;99567.88;5147986;27;8981;-65
2022/08/30 07:15:54;;;;;;;;;20.00;20.00;;;;;28.93;49.18;99565.69;5148755;27;8823;-64
2022/08/30 07:21:17;;;;;;;;;23.20;21.00;;;;;29.21;49.68;99566.28;5083913;28;9495;-63
2022/08/30 07:23:48;;;;;;;;;25.40;21.40;;;;;29.08;48.77;99553.75;5050584;28;8872;-68
2022/08/30 07:26:24;;;;;;;;;22.60;22.20;;;;;28.32;50.86;99555.03;5083329;28;8973;-65
2022/08/30 07:28:53;;;;;;;;;23.20;21.00;;;;;28.88;50.57;99554.44;5079667;28;8859;-63
2022/08/30 07:31:26;;;;;;;;;23.00;22.00;;;;;28.60;49.90;99559.19;5079456;28;8845;-67
2022/08/30 07:33:55;;;;;;;;;20.00;16.60;;;;;28.92;50.68;99553.22;5083728;28;8857;-62
2022/08/30 07:36:24;;;;;;;;;21.40;21.40;;;;;29.19;49.86;99562.81;5044909;28;9069;-65
2022/08/30 07:38:53;;;;;;;;;22.60;22.00;;;;;29.46;49.28;99560.66;5073902;28;8855;-64
2022/08/30 07:41:25;;;;;;;;;22.20;20.80;;;;;29.80;49.31;99551.78;5031328;28;8845;-65
2022/08/30 07:43:55;;;;;;;;;26.20;24.40;;;;;29.90;48.33;99558.13;5081750;28;8863;-66
2022/08/30 07:46:26;;;;;;;;;21.80;21.80;;;;;29.40;48.28;99558.47;5084814;28;8863;-66
2022/08/30 07:48:55;;;;;;;;;19.40;18.20;;;;;29.77;48.50;99571.69;5085262;28;8934;-65
2022/08/30 07:51:25;;;;;;;;;22.60;21.40;;;;;30.00;47.28;99559.09;5082182;28;8847;-67
2022/08/30 07:53:55;;;;;;;;;27.80;22.60;;;;;29.54;47.55;99560.06;5084268;28;8843;-65
2022/08/30 07:56:25;;;;;;;;;27.40;25.40;;;;;28.95;49.34;99566.41;5085316;28;8843;-66
2022/08/30 07:58:53;;;;;;;;;24.60;24.60;;;;;28.29;51.50;99571.34;5128083;27;8843;-68
2022/08/30 08:01:23;;;;;;;;;24.80;23.00;;;;;28.58;51.36;99575.44;5149255;27;9001;-64
2022/08/30 08:03:53;;;;;;;;;23.00;22.00;;;;;29.45;51.59;99574.22;5149179;27;9697;-65
2022/08/30 08:06:23;;;;;;;;;26.20;25.40;;;;;29.51;48.95;99577.28;5094558;28;8973;-66
2022/08/30 08:08:52;;;;;;;;;29.80;27.40;;;;;27.90;52.97;99582.22;5088190;28;8849;-66
2022/08/30 08:11:24;;;;;;;;;26.40;24.40;;;;;27.81;54.23;99575.63;5105249;28;8867;-67
2022/08/30 08:13:59;;;;;;;;;23.60;23.00;;;;;28.94;51.58;99572.75;5084854;28;8889;-67
2022/08/30 08:16:29;;;;;;;;;26.00;24.00;;;;;28.03;52.70;99570.56;5084772;28;9651;-67
2022/08/30 08:18:59;;;;;;;;;21.80;21.40;;;;;28.54;52.02;99568.56;5083764;28;8855;-66
2022/08/30 08:21:28;;;;;;;;;21.40;20.60;;;;;29.19;50.70;99565.50;5084927;28;8855;-73
2022/08/30 08:23:56;;;;;;;;;20.60;20.60;;;;;29.15;50.06;99571.16;5084140;28;8859;-64
2022/08/30 08:26:25;;;;;;;;;25.40;23.80;;;;;28.47;51.74;99566.44;5084322;28;8863;-66
2022/08/30 08:28:53;;;;;;;;;22.40;20.60;;;;;28.53;51.83;99580.28;5064809;28;8937;-67
2022/08/30 08:31:27;;;;;;;;;28.00;26.40;;;;;29.04;51.55;99572.94;5096664;28;8859;-64
2022/08/30 08:34:04;;;;;;;;;25.80;24.00;;;;;29.13;50.54;99578.47;5096242;28;8833;-70
2022/08/30 08:36:34;;;;;;;;;25.40;23.60;;;;;29.73;50.08;99573.75;5101011;27;9002;-68
2022/08/30 08:39:04;;;;;;;;;25.00;24.00;;;;;29.09;50.93;99576.09;5090701;27;8819;-66
2022/08/30 08:41:45;;;;;;;;;37.00;33.50;;;;;29.00;50.70;99588.41;5142966;27;8969;-64
2022/08/30 08:44:25;;;;;;;;;24.60;24.00;;;;;29.70;51.49;99579.38;5147337;27;9776;-67
2022/08/30 08:47:11;;;;;;;;;22.40;22.00;;;;;30.33;49.43;99575.31;5147126;27;8954;-66
2022/08/30 08:49:46;;;;;;;;;30.00;27.60;;;;;30.02;48.45;99580.47;5094306;27;8843;-68
2022/08/30 08:55:10;;;;;;;;;24.60;20.80;;;;;31.09;47.94;99576.09;5134962;27;8851;-64
2022/08/30 08:57:39;;;;;;;;;26.40;26.20;;;;;31.54;46.11;99581.22;5147878;27;8843;-66
2022/08/30 09:00:10;;;;;;;;;24.60;24.60;;;;;31.78;46.46;99575.50;5148367;27;8886;-65
2022/08/30 09:02:42;;;;;;;;;27.60;26.40;;;;;32.00;45.96;99570.88;5129813;27;9019;-66
2022/08/30 09:05:17;;;;;;;;;34.50;31.50;;;;;31.44;45.02;99583.00;5127212;27;8865;-64
2022/08/30 09:07:51;;;;;;;;;29.20;28.80;;;;;30.98;47.08;99574.31;5126963;27;8842;-68
2022/08/30 09:10:22;;;;;;;;;29.20;27.20;;;;;31.62;46.32;99583.25;5140065;27;8847;-66
2022/08/30 09:13:10;;;;;;;;;29.40;28.60;;;;;30.05;48.27;99585.59;5137884;27;8839;-69
2022/08/30 09:15:41;;;;;;;;;30.40;28.80;;;;;29.81;49.36;99589.31;5105577;27;9555;-66
2022/08/30 09:18:11;;;;;;;;;28.60;28.20;;;;;30.11;48.99;99585.97;5143858;27;8843;-64
2022/08/30 09:20:51;;;;;;;;;29.20;28.60;;;;;30.18;49.31;99596.22;5143857;27;9556;-66
2022/08/30 09:23:27;;;;;;;;;29.40;28.60;;;;;30.15;49.03;99589.25;5147788;27;8897;-66
2022/08/30 09:25:58;;;;;;;;;26.20;24.40;;;;;30.22;48.42;99595.84;5147720;27;8843;-66
2022/08/30 09:28:30;;;;;;;;;27.80;27.00;;;;;30.40;48.63;99592.69;5145636;27;8835;-65
2022/08/30 09:31:02;;;;;;;;;29.40;26.60;;;;;30.96;47.36;99597.00;5133635;27;9576;-63
2022/08/30 09:33:31;;;;;;;;;29.00;25.40;;;;;31.13;46.46;99595.56;5133201;27;8834;-65
2022/08/30 09:36:16;;;;;;;;;29.40;26.40;;;;;31.38;45.60;99597.84;5132028;27;8848;-66
2022/08/30 09:38:45;;;;;;;;;24.80;23.60;;;;;31.68;46.58;99598.88;5115746;27;11332;-78
2022/08/30 09:41:29;;;;;;;;;31.75;28.50;;;;;29.99;48.65;99604.94;5152598;27;8859;-77
2022/08/30 09:44:08;;;;;;;;;30.00;29.60;;;;;30.61;46.72;99592.72;5133291;27;8881;-75
2022/08/30 09:46:45;;;;;;;;;28.40;27.00;;;;;29.68;49.04;99593.91;5124302;27;8882;-80
2022/08/30 09:49:33;;;;;;;;;26.00;25.40;;;;;29.64;49.25;99596.00;5121367;27;8846;-83
2022/08/30 09:52:12;;;;;;;;;27.20;27.00;;;;;30.26;48.47;99586.53;5122268;27;8844;-79
2022/08/30 09:54:53;;;;;;;;;29.00;26.60;;;;;30.76;46.78;99588.75;5113742;27;8854;-79
2022/08/30 09:57:35;;;;;;;;;35.50;32.00;;;;;29.65;49.59;99583.41;5134414;27;8835;-79
2022/08/30 10:00:08;;;;;;;;;26.40;25.80;;;;;30.49;47.72;99576.63;5128996;27;8855;-79
2022/08/30 10:02:59;;;;;;;;;29.20;28.40;;;;;29.33;50.58;99587.66;5110527;27;9660;-80
2022/08/30 10:05:36;;;;;;;;;30.60;26.40;;;;;29.78;49.71;99573.41;5113002;27;8904;-79
2022/08/30 10:08:16;;;;;;;;;29.20;27.60;;;;;30.25;49.15;99568.69;5087209;28;8857;-80
2022/08/30 10:10:51;;;;;;;;;29.00;25.80;;;;;29.65;49.39;99575.34;5054282;28;8846;-80
2022/08/30 10:13:52;;;;;;;;;25.80;24.00;;;;;28.65;52.60;99572.28;5063563;28;8859;-77
2022/08/30 10:16:34;;;;;;;;;29.00;27.40;;;;;28.27;54.15;99570.63;4987290;28;8872;-77
2022/08/30 10:19:16;;;;;;;;;28.60;28.20;;;;;28.55;53.93;99566.78;4989212;28;8890;-78
2022/08/30 10:21:51;;;;;;;;;27.40;25.80;;;;;29.23;51.60;99564.31;4990235;28;8865;-77
2022/08/30 10:24:28;;;;;;;;;28.20;27.20;;;;;29.74;50.88;99556.69;4999813;28;8896;-78
2022/08/30 10:27:07;;;;;;;;;32.40;28.00;;;;;30.48;48.53;99550.66;4950776;28;8891;-80
2022/08/30 10:29:42;;;;;;;;;28.00;27.20;;;;;30.33;48.07;99557.34;4930817;28;8874;-79
2022/08/30 10:32:19;;;;;;;;;31.80;28.40;;;;;30.76;46.63;99555.59;4972091;28;8934;-77
2022/08/30 10:34:52;;;;;;;;;26.00;26.00;;;;;30.57;47.96;99546.38;4970530;28;8962;-77
2022/08/30 10:37:26;;;;;;;;;26.00;24.60;;;;;31.19;47.75;99546.53;4919337;28;8862;-78
2022/08/30 10:41:11;;;;;;;;;25.40;24.40;;;;;31.69;46.00;99551.22;4995685;28;8876;-81
2022/08/30 10:42:52;;;;;;;;;30.40;27.40;;;;;30.77;46.91;99539.28;4968736;28;8896;-77
2022/08/30 10:45:22;;;;;;;;;29.25;29.25;;;;;30.26;48.22;99543.47;5023003;28;8884;-77
2022/08/30 10:48:00;;;;;;;;;23.00;21.80;;;;;30.41;48.26;99537.84;5028947;28;8836;-78
2022/08/30 10:50:32;;;;;;;;;26.20;25.00;;;;;30.26;48.14;99534.56;5012542;28;8860;-75
2022/08/30 10:53:14;;;;;;;;;28.00;25.20;;;;;31.40;45.82;99539.28;5011869;28;8961;-77
2022/08/30 10:55:51;;;;;;;;;25.80;24.00;;;;;31.93;44.04;99527.44;5084834;28;8959;-78
2022/08/30 10:58:20;;;;;;;;;26.60;25.60;;;;;32.31;44.13;99527.66;5089342;27;8879;-78
2022/08/30 11:01:06;;;;;;;;;23.20;21.80;;;;;32.74;42.14;99529.09;5129394;27;8847;-77
2022/08/30 11:04:04;;;;;;;;;25.20;23.80;;;;;32.89;42.43;99532.22;5104368;27;8872;-78
2022/08/30 11:06:40;;;;;;;;;25.80;25.00;;;;;32.19;43.35;99525.09;5114522;27;8873;-75
2022/08/30 11:09:31;;;;;;;;;28.60;27.00;;;;;32.88;42.19;99522.44;5078701;27;8851;-78
2022/08/30 11:12:23;;;;;;;;;27.80;27.40;;;;;32.48;42.76;99520.69;5131462;27;9579;-76
2022/08/30 11:14:54;;;;;;;;;25.40;23.60;;;;;32.48;41.70;99516.16;5130865;27;8933;-78
2022/08/30 11:17:31;;;;;;;;;23.40;22.60;;;;;32.41;40.99;99523.97;5073890;27;8871;-76
2022/08/30 11:20:02;;;;;;;;;24.60;23.80;;;;;31.79;42.66;99507.09;5137002;27;8964;-77
2022/08/30 11:22:34;;;;;;;;;23.00;22.20;;;;;31.76;42.64;99502.00;5111953;27;8879;-78
2022/08/30 11:25:13;;;;;;;;;23.80;22.60;;;;;32.50;42.80;99507.94;5098022;27;8893;-77
2022/08/30 11:27:47;;;;;;;;;25.20;23.60;;;;;32.62;41.60;99499.56;5144904;27;8870;-76
2022/08/30 11:30:52;;;;;;;;;30.00;28.40;;;;;32.97;41.21;99503.50;5151274;27;8855;-79
2022/08/30 11:33:43;;;;;;;;;25.60;24.40;;;;;33.52;41.63;99502.75;5141707;27;8843;-78
2022/08/30 11:36:46;;;;;;;;;27.75;27.75;;;;;33.50;40.85;99493.06;5118602;27;8843;-79
2022/08/30 11:39:43;;;;;;;;;26.50;26.50;;;;;32.22;43.02;99500.53;5132024;27;8855;-77
2022/08/30 11:42:25;;;;;;;;;21.20;20.20;;;;;32.85;42.45;99487.59;5130756;27;8835;-79
2022/08/30 11:45:44;;;;;;;;;27.75;26.50;;;;;32.36;43.21;99496.53;5112865;27;8888;-79
2022/08/30 11:48:43;;;;;;;;;26.60;25.40;;;;;32.86;42.69;99489.31;5047094;28;8861;-78
2022/08/30 11:51:51;;;;;;;;;23.60;23.60;;;;;32.51;42.06;99493.41;5029525;28;8850;-77
2022/08/30 11:54:58;;;;;;;;;18.60;17.80;;;;;32.66;43.28;99488.47;5048061;28;8839;-79
2022/08/30 11:57:36;;;;;;;;;24.00;22.80;;;;;32.99;41.73;99493.38;5031679;28;8871;-78
2022/08/30 12:00:10;;;;;;;;;20.60;20.20;;;;;33.19;41.14;99486.09;5030572;28;8877;-80
2022/08/30 12:02:55;;;;;;;;;25.00;23.00;;;;;33.55;40.18;99478.09;5065229;28;8876;-78